Time;durP1;ratioP1;P1;durP2;ratioP2;P2;SDS_P1;SDS_P2;PMS_P1;PMS_P2;Temp;Humidity;BMP_temperature;BMP_pressure;BME280_temperature;BME280_humidity;BME280_pressure;Samples;Min_cycle;Max_cycle;Signal;HPM_P1;HPM_P2
2021/11/29 00:00:36;;;;;;;12.52;7.82;;;3.30;99.90;;;;;;4970558;28;20055;-78
2021/11/29 00:03:10;;;;;;;12.43;7.93;;;3.30;99.90;;;;;;5364337;23;20174;-76
2021/11/29 00:05:37;;;;;;;11.82;7.82;;;3.40;99.90;;;;;;4969346;28;20088;-76
2021/11/29 00:08:05;;;;;;;12.57;8.23;;;3.40;99.90;;;;;;4971351;28;20051;-78
2021/11/29 00:10:35;;;;;;;13.27;8.38;;;3.40;99.90;;;;;;4971112;28;20054;-77
2021/11/29 00:13:03;;;;;;;10.93;7.22;;;3.40;99.90;;;;;;4970220;28;20484;-78
2021/11/29 00:15:31;;;;;;;14.10;8.90;;;3.40;99.90;;;;;;4970373;28;20137;-79
2021/11/29 00:17:59;;;;;;;12.88;8.05;;;3.40;99.90;;;;;;4974140;28;20077;-78
2021/11/29 00:20:27;;;;;;;11.63;7.47;;;3.40;99.90;;;;;;4974165;28;20053;-77
2021/11/29 00:22:54;;;;;;;11.85;7.53;;;3.30;99.90;;;;;;4974581;28;20520;-78
2021/11/29 00:25:21;;;;;;;11.75;7.60;;;3.30;99.90;;;;;;4973364;28;20142;-76
2021/11/29 00:27:48;;;;;;;12.35;7.53;;;3.30;99.90;;;;;;4974534;28;20138;-78
2021/11/29 00:30:16;;;;;;;13.82;8.40;;;3.30;99.90;;;;;;4974393;28;20057;-78
2021/11/29 00:32:44;;;;;;;12.77;8.23;;;3.30;99.90;;;;;;4974372;28;20518;-78
2021/11/29 00:35:12;;;;;;;12.25;7.88;;;3.30;99.90;;;;;;4974208;28;20081;-79
2021/11/29 00:37:41;;;;;;;13.45;8.77;;;3.30;99.90;;;;;;4974360;28;20239;-78
2021/11/29 00:40:11;;;;;;;13.50;9.02;;;3.40;99.90;;;;;;4974335;28;20470;-78
2021/11/29 00:42:38;;;;;;;13.63;8.00;;;3.40;99.90;;;;;;4974441;28;20519;-76
2021/11/29 00:45:08;;;;;;;13.05;8.50;;;3.40;99.90;;;;;;4973663;28;20057;-77
2021/11/29 00:47:35;;;;;;;13.23;8.15;;;3.40;99.90;;;;;;4970560;28;20055;-78
2021/11/29 00:50:03;;;;;;;12.60;7.97;;;3.40;99.90;;;;;;4973723;28;20231;-76
2021/11/29 00:52:30;;;;;;;13.90;8.77;;;3.40;99.90;;;;;;4973866;28;20507;-78
2021/11/29 00:54:58;;;;;;;12.30;7.80;;;3.40;99.90;;;;;;4973601;28;20053;-76
2021/11/29 00:57:25;;;;;;;13.73;8.52;;;3.40;99.90;;;;;;4973874;28;20043;-77
2021/11/29 00:59:52;;;;;;;13.40;8.13;;;3.40;99.90;;;;;;4974062;28;20046;-77
2021/11/29 01:02:20;;;;;;;12.52;7.63;;;3.40;99.90;;;;;;4973575;28;20114;-78
2021/11/29 01:04:47;;;;;;;11.90;7.50;;;3.30;99.90;;;;;;4973849;28;20062;-77
2021/11/29 01:07:15;;;;;;;8.73;5.65;;;3.30;99.90;;;;;;4972973;28;20105;-78
2021/11/29 01:09:42;;;;;;;9.80;6.00;;;3.20;99.90;;;;;;4973866;28;20057;-78
2021/11/29 01:12:12;;;;;;;9.95;6.57;;;3.20;99.90;;;;;;4973433;28;20057;-77
2021/11/29 01:14:39;;;;;;;10.52;6.55;;;3.10;99.90;;;;;;4974085;28;20074;-78
2021/11/29 01:17:07;;;;;;;11.25;6.07;;;3.00;99.90;;;;;;4974150;28;20051;-77
2021/11/29 01:19:34;;;;;;;12.85;7.85;;;3.00;99.90;;;;;;4974202;28;20043;-78
2021/11/29 01:22:01;;;;;;;14.63;8.95;;;3.00;99.90;;;;;;4974115;28;20141;-79
2021/11/29 01:24:28;;;;;;;14.05;9.63;;;2.90;99.90;;;;;;4973730;28;20502;-79
2021/11/29 01:26:56;;;;;;;15.32;9.65;;;2.80;99.90;;;;;;4974186;28;20054;-79
2021/11/29 01:29:24;;;;;;;14.43;9.18;;;2.70;99.90;;;;;;4973496;28;20125;-79
2021/11/29 01:31:51;;;;;;;15.48;9.95;;;2.70;99.90;;;;;;4974279;28;20057;-77
2021/11/29 01:34:19;;;;;;;14.77;9.43;;;2.60;99.90;;;;;;4973717;28;20073;-77
2021/11/29 01:36:46;;;;;;;15.00;9.70;;;2.60;99.90;;;;;;4973685;28;20058;-78
2021/11/29 01:39:13;;;;;;;16.35;10.13;;;2.60;99.90;;;;;;4973764;28;20468;-78
2021/11/29 01:41:44;;;;;;;15.95;10.00;;;2.50;99.90;;;;;;4973731;28;20408;-79
2021/11/29 01:44:11;;;;;;;16.02;10.40;;;2.50;99.90;;;;;;4974137;28;20130;-78
2021/11/29 01:46:40;;;;;;;16.67;10.38;;;2.50;99.90;;;;;;4973767;28;20125;-78
2021/11/29 01:49:07;;;;;;;16.25;10.60;;;2.50;99.90;;;;;;4973780;28;20057;-79
2021/11/29 01:51:34;;;;;;;15.63;10.45;;;2.50;99.90;;;;;;4973793;28;20072;-78
2021/11/29 01:54:01;;;;;;;17.58;11.02;;;2.40;99.90;;;;;;4972902;28;20049;-76
2021/11/29 01:56:29;;;;;;;16.98;10.02;;;2.40;99.90;;;;;;4972613;28;20050;-77
2021/11/29 01:58:56;;;;;;;16.63;10.63;;;2.40;99.90;;;;;;4973589;28;20061;-78
2021/11/29 02:01:26;;;;;;;15.45;10.35;;;2.40;99.90;;;;;;4973600;28;20039;-77
2021/11/29 02:03:59;;;;;;;16.50;9.85;;;2.40;99.90;;;;;;4971983;28;20403;-78
2021/11/29 02:06:27;;;;;;;17.52;11.27;;;2.40;99.90;;;;;;4972578;28;20046;-78
2021/11/29 02:08:55;;;;;;;16.95;10.75;;;2.50;99.90;;;;;;4973238;28;20082;-77
2021/11/29 02:11:24;;;;;;;14.88;9.65;;;2.50;99.90;;;;;;4973074;28;20053;-76
2021/11/29 02:13:54;;;;;;;17.33;10.35;;;2.50;99.90;;;;;;4972348;28;20511;-75
2021/11/29 02:16:22;;;;;;;16.13;10.10;;;2.50;99.90;;;;;;4972966;28;20057;-77
2021/11/29 02:18:49;;;;;;;16.08;10.32;;;2.60;99.90;;;;;;4972909;28;20133;-78
2021/11/29 02:21:20;;;;;;;16.83;10.07;;;2.60;99.90;;;;;;4972778;28;20560;-78
2021/11/29 02:23:50;;;;;;;15.60;9.75;;;2.60;99.90;;;;;;4973525;28;20046;-76
2021/11/29 02:26:22;;;;;;;16.83;10.25;;;2.60;99.90;;;;;;4973059;28;20057;-77
2021/11/29 02:28:54;;;;;;;16.45;10.10;;;2.60;99.90;;;;;;4973222;28;20059;-77
2021/11/29 02:31:25;;;;;;;16.60;10.48;;;2.60;99.90;;;;;;4971917;28;20047;-77
2021/11/29 02:33:53;;;;;;;17.33;10.35;;;2.60;99.90;;;;;;4972584;28;20469;-77
2021/11/29 02:36:21;;;;;;;16.48;10.07;;;2.60;99.90;;;;;;4974119;28;20043;-77
2021/11/29 02:38:48;;;;;;;16.75;10.63;;;2.60;99.90;;;;;;4974049;28;20051;-76
2021/11/29 02:41:15;;;;;;;17.23;10.68;;;2.60;99.90;;;;;;4975183;28;20291;-76
2021/11/29 02:43:43;;;;;;;16.98;10.82;;;2.60;99.90;;;;;;4973725;28;20054;-76
2021/11/29 02:46:10;;;;;;;18.30;10.85;;;2.60;99.90;;;;;;4973197;28;20510;-76
2021/11/29 02:48:43;;;;;;;20.10;12.20;;;2.60;99.90;;;;;;4961485;28;20134;-76
2021/11/29 02:51:25;;;;;;;19.23;11.48;;;2.60;99.90;;;;;;4977344;28;20054;-76
2021/11/29 02:53:56;;;;;;;18.90;12.20;;;2.60;99.90;;;;;;4977635;28;20467;-76
2021/11/29 02:56:24;;;;;;;18.83;11.48;;;2.60;99.90;;;;;;4977059;28;20043;-76
2021/11/29 02:58:51;;;;;;;16.92;10.77;;;2.60;99.90;;;;;;4977434;28;20137;-76
2021/11/29 03:01:18;;;;;;;18.15;11.25;;;2.60;99.90;;;;;;4977273;28;20058;-76
2021/11/29 03:03:48;;;;;;;19.70;11.18;;;2.70;99.90;;;;;;4979072;28;20058;-76
2021/11/29 03:06:15;;;;;;;19.85;12.15;;;2.70;99.90;;;;;;4977288;28;20141;-76
2021/11/29 03:08:45;;;;;;;19.05;11.68;;;2.70;99.90;;;;;;4979562;28;20072;-75
2021/11/29 03:11:13;;;;;;;20.85;12.13;;;2.70;99.90;;;;;;4978891;28;20452;-75
2021/11/29 03:13:40;;;;;;;19.33;11.85;;;2.70;99.90;;;;;;4976532;28;20050;-76
2021/11/29 03:16:08;;;;;;;18.52;11.18;;;2.70;99.90;;;;;;4978366;28;20488;-76
2021/11/29 03:18:38;;;;;;;20.40;11.90;;;2.70;99.90;;;;;;4976350;28;20043;-77
2021/11/29 03:21:07;;;;;;;19.10;11.85;;;2.70;99.90;;;;;;4976759;28;20051;-75
2021/11/29 03:23:36;;;;;;;19.00;11.45;;;2.70;99.90;;;;;;4975804;28;20042;-78
2021/11/29 03:26:07;;;;;;;20.63;12.02;;;2.70;99.90;;;;;;4976461;28;20053;-76
2021/11/29 03:28:37;;;;;;;21.42;11.60;;;2.70;99.90;;;;;;4976753;28;20057;-76
2021/11/29 03:31:06;;;;;;;18.90;11.43;;;2.70;99.90;;;;;;4976611;28;20485;-77
2021/11/29 03:33:33;;;;;;;20.92;12.40;;;2.70;99.90;;;;;;4976080;28;20378;-75
2021/11/29 03:36:00;;;;;;;22.58;12.35;;;2.70;99.90;;;;;;4976282;28;20070;-77
2021/11/29 03:38:28;;;;;;;20.52;12.32;;;2.70;99.90;;;;;;4970170;28;20046;-79
2021/11/29 03:40:56;;;;;;;20.45;12.45;;;2.60;99.90;;;;;;4976092;28;20057;-76
2021/11/29 03:43:24;;;;;;;20.17;11.82;;;2.60;99.90;;;;;;4976280;28;20109;-77
2021/11/29 03:45:52;;;;;;;23.42;13.15;;;2.60;99.90;;;;;;4975976;28;20141;-76
2021/11/29 03:48:20;;;;;;;21.67;12.50;;;2.60;99.90;;;;;;4975713;28;20138;-77
2021/11/29 03:50:47;;;;;;;23.55;13.27;;;2.60;99.90;;;;;;4975563;28;20049;-77
2021/11/29 03:53:15;;;;;;;21.50;12.68;;;2.60;99.90;;;;;;4975532;28;20506;-75
2021/11/29 03:55:43;;;;;;;21.17;12.77;;;2.60;99.90;;;;;;4975992;28;20051;-75
2021/11/29 03:58:11;;;;;;;21.38;12.82;;;2.60;99.90;;;;;;4974988;28;20133;-76
2021/11/29 04:00:40;;;;;;;22.27;14.15;;;2.60;99.90;;;;;;4975286;28;20057;-76
2021/11/29 04:03:07;;;;;;;24.00;14.50;;;2.60;99.90;;;;;;4971777;28;20507;-76
2021/11/29 04:05:34;;;;;;;24.10;14.55;;;2.60;99.90;;;;;;4972873;28;20475;-77
2021/11/29 04:08:01;;;;;;;26.25;15.60;;;2.60;99.90;;;;;;4971322;28;20050;-75
2021/11/29 04:10:28;;;;;;;24.05;14.68;;;2.60;99.90;;;;;;4972116;28;20724;-75
2021/11/29 04:12:55;;;;;;;24.70;14.18;;;2.70;99.90;;;;;;4971458;28;20050;-75
2021/11/29 04:15:23;;;;;;;24.60;14.50;;;2.70;99.90;;;;;;4971800;28;20051;-75
2021/11/29 04:17:51;;;;;;;25.10;14.68;;;2.70;99.90;;;;;;4971346;28;20506;-75
2021/11/29 04:20:18;;;;;;;26.58;15.57;;;2.80;99.90;;;;;;4971797;28;20050;-76
2021/11/29 04:22:46;;;;;;;25.50;15.00;;;2.80;99.90;;;;;;4971096;28;20050;-76
2021/11/29 04:25:17;;;;;;;24.30;14.35;;;2.80;99.90;;;;;;4971768;28;20456;-75
2021/11/29 04:27:45;;;;;;;25.13;14.45;;;2.80;99.90;;;;;;4971624;28;20531;-77
2021/11/29 04:30:19;;;;;;;24.08;14.45;;;2.80;99.90;;;;;;4971291;28;20142;-77
2021/11/29 04:32:49;;;;;;;26.00;15.23;;;2.80;99.90;;;;;;4971247;28;20065;-76
2021/11/29 04:35:18;;;;;;;25.33;15.43;;;2.80;99.90;;;;;;4971609;28;20484;-74
2021/11/29 04:37:46;;;;;;;26.40;15.35;;;2.80;99.90;;;;;;4971791;28;20061;-75
2021/11/29 04:40:14;;;;;;;27.05;16.27;;;2.80;99.90;;;;;;4971226;28;20078;-75
2021/11/29 04:42:41;;;;;;;27.30;16.02;;;2.80;99.90;;;;;;4970658;28;20122;-78
2021/11/29 04:45:09;;;;;;;26.75;15.93;;;2.80;99.90;;;;;;4971836;28;20055;-76
2021/11/29 04:47:37;;;;;;;26.80;15.75;;;2.80;99.90;;;;;;4971317;28;20925;-78
2021/11/29 04:50:05;;;;;;;26.95;15.15;;;2.80;99.90;;;;;;4970900;28;20575;-78
2021/11/29 04:52:34;;;;;;;26.23;14.77;;;2.70;99.90;;;;;;4970862;28;20073;-78
2021/11/29 04:55:01;;;;;;;23.15;14.13;;;2.80;99.90;;;;;;4971322;28;20134;-78
2021/11/29 04:57:28;;;;;;;24.48;15.13;;;2.80;99.90;;;;;;4971139;28;20133;-79
2021/11/29 04:59:55;;;;;;;25.38;14.70;;;2.80;99.90;;;;;;4971109;28;20054;-79
2021/11/29 05:02:23;;;;;;;22.17;13.85;;;2.80;99.90;;;;;;4973042;28;20492;-78
2021/11/29 05:04:50;;;;;;;23.45;13.80;;;2.80;99.90;;;;;;4974060;28;20051;-78
2021/11/29 05:07:18;;;;;;;23.42;13.63;;;2.90;99.90;;;;;;4973567;28;20058;-77
2021/11/29 05:09:46;;;;;;;22.13;13.32;;;2.90;99.90;;;;;;4973740;28;20073;-79
2021/11/29 05:12:15;;;;;;;22.17;13.20;;;2.90;99.90;;;;;;4973807;28;20097;-76
2021/11/29 05:14:42;;;;;;;21.42;13.32;;;2.90;99.90;;;;;;4973813;28;20058;-77
2021/11/29 05:17:10;;;;;;;22.45;13.20;;;2.90;99.90;;;;;;4974139;28;20050;-78
2021/11/29 05:19:37;;;;;;;21.65;12.35;;;2.80;99.90;;;;;;4974106;28;20145;-74
2021/11/29 05:22:05;;;;;;;21.23;12.57;;;2.80;99.90;;;;;;4973708;28;20050;-74
2021/11/29 05:24:32;;;;;;;20.92;12.77;;;2.80;99.90;;;;;;4973692;28;20510;-74
2021/11/29 05:27:01;;;;;;;19.35;11.85;;;2.70;99.90;;;;;;4974171;28;20134;-78
2021/11/29 05:29:29;;;;;;;19.17;12.50;;;2.70;99.90;;;;;;4973875;28;20051;-79
2021/11/29 05:31:56;;;;;;;20.60;12.25;;;2.60;99.90;;;;;;4973634;28;20070;-77
2021/11/29 05:34:23;;;;;;;20.70;12.07;;;2.60;99.90;;;;;;4953989;29;20047;-76
2021/11/29 05:36:50;;;;;;;19.40;12.05;;;2.60;99.90;;;;;;4954429;29;20046;-77
2021/11/29 05:39:17;;;;;;;21.13;12.30;;;2.60;99.90;;;;;;4954705;29;20146;-77
2021/11/29 05:41:46;;;;;;;20.00;12.27;;;2.50;99.90;;;;;;4954904;29;20090;-76
2021/11/29 05:44:16;;;;;;;19.67;12.25;;;2.50;99.90;;;;;;4954654;29;20057;-77
2021/11/29 05:46:45;;;;;;;22.85;13.30;;;2.50;99.90;;;;;;4954359;29;20047;-78
2021/11/29 05:49:12;;;;;;;23.45;13.80;;;2.60;99.90;;;;;;4954558;29;20134;-78
2021/11/29 05:51:39;;;;;;;21.77;13.23;;;2.50;99.90;;;;;;4954880;29;20575;-78
2021/11/29 05:54:07;;;;;;;23.65;13.50;;;2.50;99.90;;;;;;4954745;29;20149;-78
2021/11/29 05:56:34;;;;;;;27.17;13.43;;;2.50;99.90;;;;;;4956202;28;20146;-77
2021/11/29 05:59:01;;;;;;;21.73;12.88;;;2.40;99.90;;;;;;4974397;28;20456;-76
2021/11/29 06:01:29;;;;;;;24.98;14.18;;;2.40;99.90;;;;;;4973763;28;20134;-78
2021/11/29 06:03:56;;;;;;;25.85;14.45;;;2.40;99.90;;;;;;4974822;28;20114;-77
2021/11/29 06:06:23;;;;;;;24.50;14.18;;;2.40;99.90;;;;;;4974855;28;20049;-78
2021/11/29 06:08:50;;;;;;;26.77;14.50;;;2.40;99.90;;;;;;4978188;28;20074;-78
2021/11/29 06:11:17;;;;;;;25.17;14.95;;;2.40;99.90;;;;;;4975841;28;20043;-79
2021/11/29 06:13:45;;;;;;;26.75;15.23;;;2.40;99.90;;;;;;4973126;28;20057;-78
2021/11/29 06:16:12;;;;;;;26.30;15.13;;;2.30;99.90;;;;;;4974739;28;20046;-78
2021/11/29 06:18:40;;;;;;;28.48;16.20;;;2.30;99.90;;;;;;4974583;28;20686;-77
2021/11/29 06:21:08;;;;;;;25.80;14.43;;;2.40;99.90;;;;;;4974464;28;20102;-76
2021/11/29 06:23:36;;;;;;;28.45;14.85;;;2.30;99.90;;;;;;4972867;28;20049;-78
2021/11/29 06:26:03;;;;;;;26.35;14.88;;;2.40;99.90;;;;;;4973274;28;20055;-79
2021/11/29 06:28:30;;;;;;;27.33;15.13;;;2.40;99.90;;;;;;4973618;28;20449;-79
2021/11/29 06:30:57;;;;;;;28.77;16.13;;;2.40;99.90;;;;;;4973908;28;20461;-79
2021/11/29 06:33:24;;;;;;;29.42;15.90;;;2.40;99.90;;;;;;4973677;28;20561;-79
2021/11/29 06:35:54;;;;;;;26.73;15.32;;;2.30;99.90;;;;;;4974402;28;20050;-78
2021/11/29 06:38:21;;;;;;;24.67;14.63;;;2.30;99.90;;;;;;4974124;28;20049;-79
2021/11/29 06:40:50;;;;;;;26.90;15.45;;;2.30;99.90;;;;;;4973667;28;20050;-78
2021/11/29 06:43:18;;;;;;;27.10;15.05;;;2.20;99.90;;;;;;4974640;28;20051;-79
2021/11/29 06:45:46;;;;;;;26.05;14.82;;;2.20;99.90;;;;;;4974175;28;20062;-77
2021/11/29 06:48:13;;;;;;;25.83;14.35;;;2.10;99.90;;;;;;4973813;28;20134;-77
2021/11/29 06:50:40;;;;;;;28.38;15.15;;;2.10;99.90;;;;;;4973010;28;20468;-79
2021/11/29 06:53:09;;;;;;;26.42;15.60;;;2.10;99.90;;;;;;4973416;28;20398;-79
2021/11/29 06:55:36;;;;;;;24.50;14.43;;;2.10;99.90;;;;;;4973779;28;20489;-78
2021/11/29 06:58:04;;;;;;;24.52;13.70;;;2.10;99.90;;;;;;4973623;28;20499;-78
2021/11/29 07:00:33;;;;;;;24.38;13.65;;;2.10;99.90;;;;;;4973211;28;20445;-79
2021/11/29 07:03:00;;;;;;;23.60;13.45;;;2.10;99.90;;;;;;4973712;28;20061;-78
2021/11/29 07:05:28;;;;;;;24.45;13.55;;;2.10;99.90;;;;;;4973520;28;20138;-80
2021/11/29 07:07:56;;;;;;;23.92;12.43;;;2.10;99.90;;;;;;4973457;28;20061;-79
2021/11/29 07:10:25;;;;;;;24.70;13.00;;;2.20;99.90;;;;;;4973575;28;20050;-80
2021/11/29 07:12:53;;;;;;;26.08;12.48;;;2.20;99.90;;;;;;4972943;28;20061;-78
2021/11/29 07:15:21;;;;;;;23.52;12.68;;;2.20;99.90;;;;;;4972889;28;20050;-79
2021/11/29 07:17:49;;;;;;;21.20;11.98;;;2.20;99.90;;;;;;4956109;28;20134;-77
2021/11/29 07:20:16;;;;;;;22.60;12.30;;;2.20;99.90;;;;;;4973258;28;20472;-77
2021/11/29 07:22:43;;;;;;;23.08;12.80;;;2.20;99.90;;;;;;4972249;28;20061;-76
2021/11/29 07:25:11;;;;;;;19.75;11.27;;;2.30;99.90;;;;;;4972808;28;20061;-78
2021/11/29 07:27:40;;;;;;;19.70;10.88;;;2.20;99.90;;;;;;4973325;28;20094;-78
2021/11/29 07:30:12;;;;;;;19.67;11.20;;;2.20;99.90;;;;;;4973948;28;20055;-77
2021/11/29 07:32:39;;;;;;;18.73;10.93;;;2.20;99.90;;;;;;4973864;28;20051;-79
2021/11/29 07:35:08;;;;;;;19.73;10.68;;;2.30;99.90;;;;;;4975868;28;20089;-79
2021/11/29 07:37:35;;;;;;;21.45;11.15;;;2.30;99.90;;;;;;4976348;28;20050;-77
2021/11/29 07:40:03;;;;;;;22.48;11.60;;;2.30;99.90;;;;;;4976451;28;20047;-81
2021/11/29 07:42:31;;;;;;;19.65;10.93;;;2.30;99.90;;;;;;4976755;28;20137;-79
2021/11/29 07:45:00;;;;;;;21.38;11.20;;;2.30;99.90;;;;;;4976643;28;20133;-78
2021/11/29 07:47:27;;;;;;;20.58;10.52;;;2.30;99.90;;;;;;4976528;28;20082;-79
2021/11/29 07:49:54;;;;;;;21.75;11.50;;;2.30;99.90;;;;;;4976093;28;20411;-78
2021/11/29 07:52:22;;;;;;;20.30;11.43;;;2.30;99.90;;;;;;4975806;28;20137;-79
2021/11/29 07:54:49;;;;;;;20.65;10.18;;;2.40;99.90;;;;;;4976347;28;20054;-79
2021/11/29 07:57:17;;;;;;;19.58;10.43;;;2.40;99.90;;;;;;4980931;28;20134;-78
2021/11/29 07:59:45;;;;;;;17.98;9.90;;;2.40;99.90;;;;;;4975730;28;20043;-79
2021/11/29 08:02:14;;;;;;;15.75;9.30;;;2.40;99.90;;;;;;4975649;28;20101;-79
2021/11/29 08:04:42;;;;;;;17.33;9.20;;;2.40;99.90;;;;;;4975813;28;20047;-78
2021/11/29 08:07:09;;;;;;;15.77;8.70;;;2.50;99.90;;;;;;4975373;28;20106;-80
2021/11/29 08:09:36;;;;;;;15.75;9.27;;;2.50;99.90;;;;;;4975856;28;20796;-77
2021/11/29 08:12:03;;;;;;;17.45;9.07;;;2.50;99.90;;;;;;4975923;28;20051;-78
2021/11/29 08:14:30;;;;;;;15.18;8.30;;;2.50;99.90;;;;;;4975860;28;20403;-78
2021/11/29 08:16:57;;;;;;;14.88;7.88;;;2.50;99.90;;;;;;4976014;28;20054;-79
2021/11/29 08:19:26;;;;;;;14.73;7.82;;;2.50;99.90;;;;;;4975632;28;20047;-78
2021/11/29 08:21:53;;;;;;;14.70;7.65;;;2.50;99.90;;;;;;4976064;28;20133;-78
2021/11/29 08:24:20;;;;;;;13.48;7.05;;;2.50;99.90;;;;;;4975560;28;20453;-79
2021/11/29 08:26:47;;;;;;;14.32;7.47;;;2.50;99.90;;;;;;4975454;28;20133;-78
2021/11/29 08:29:14;;;;;;;14.65;7.57;;;2.50;99.90;;;;;;4975523;28;20043;-78
2021/11/29 08:31:42;;;;;;;13.43;7.05;;;2.50;99.90;;;;;;4975425;28;20133;-78
2021/11/29 08:34:10;;;;;;;13.27;7.00;;;2.50;99.90;;;;;;4974960;28;20401;-78
2021/11/29 08:36:39;;;;;;;13.90;6.93;;;2.50;99.90;;;;;;4974773;28;20121;-78
2021/11/29 08:39:07;;;;;;;13.80;7.07;;;2.50;99.90;;;;;;4975861;28;20046;-78
2021/11/29 08:41:34;;;;;;;15.18;7.05;;;2.50;99.90;;;;;;4980047;28;20118;-79
2021/11/29 08:44:03;;;;;;;13.98;7.07;;;2.50;99.90;;;;;;4984017;28;20106;-77
2021/11/29 08:46:31;;;;;;;13.95;7.30;;;2.50;99.90;;;;;;4979955;28;20055;-79
2021/11/29 08:48:58;;;;;;;14.88;7.55;;;2.50;99.90;;;;;;4975132;28;20493;-79
2021/11/29 08:51:25;;;;;;;13.82;7.03;;;2.50;99.90;;;;;;4974272;28;20583;-78
2021/11/29 08:53:54;;;;;;;12.82;6.60;;;2.60;99.90;;;;;;4974530;28;20051;-80
2021/11/29 08:56:21;;;;;;;11.40;6.40;;;2.60;99.90;;;;;;4974787;28;20061;-79
2021/11/29 08:58:49;;;;;;;11.70;6.60;;;2.60;99.90;;;;;;4974887;28;20474;-78
2021/11/29 09:01:16;;;;;;;12.18;6.18;;;2.70;99.90;;;;;;4975394;28;20046;-79
2021/11/29 09:03:43;;;;;;;12.07;6.35;;;2.60;99.90;;;;;;4975098;28;20149;-78
2021/11/29 09:06:10;;;;;;;11.77;6.13;;;2.60;99.90;;;;;;4974727;28;20057;-77
2021/11/29 09:08:38;;;;;;;11.55;6.57;;;2.70;99.90;;;;;;4974343;28;20057;-79
2021/11/29 09:11:07;;;;;;;14.02;6.57;;;2.70;99.90;;;;;;4974246;28;20082;-79
2021/11/29 09:13:35;;;;;;;12.20;6.40;;;2.80;99.90;;;;;;4974214;28;20050;-79
2021/11/29 09:16:06;;;;;;;12.20;6.68;;;2.80;99.90;;;;;;4974551;28;20055;-78
2021/11/29 09:18:33;;;;;;;13.10;6.55;;;2.80;99.90;;;;;;4974148;28;20106;-79
2021/11/29 09:21:01;;;;;;;13.23;6.25;;;2.90;99.90;;;;;;4975068;28;20147;-77
2021/11/29 09:23:28;;;;;;;11.70;5.65;;;2.90;99.90;;;;;;4974160;28;20072;-78
2021/11/29 09:25:55;;;;;;;11.27;5.50;;;2.90;99.90;;;;;;4973614;28;20416;-79
2021/11/29 09:28:24;;;;;;;9.88;5.55;;;2.90;99.90;;;;;;4973647;28;20525;-77
2021/11/29 09:30:53;;;;;;;10.55;5.40;;;3.00;99.90;;;;;;4974337;28;20089;-78
2021/11/29 09:33:21;;;;;;;13.10;6.63;;;3.00;99.90;;;;;;4974205;28;20047;-77
2021/11/29 09:35:48;;;;;;;11.00;5.72;;;3.00;99.90;;;;;;4975345;28;20129;-76
2021/11/29 09:38:16;;;;;;;10.38;5.10;;;3.10;99.90;;;;;;4973991;28;20054;-79
2021/11/29 09:40:44;;;;;;;11.25;5.22;;;3.20;99.90;;;;;;4973745;28;20076;-78
2021/11/29 09:43:15;;;;;;;10.95;5.57;;;3.20;99.90;;;;;;4973938;28;20096;-78
2021/11/29 09:45:47;;;;;;;10.32;5.50;;;3.20;99.90;;;;;;4976415;28;20133;-79
2021/11/29 09:48:16;;;;;;;11.05;5.82;;;3.20;99.90;;;;;;4976135;28;20047;-78
2021/11/29 09:50:47;;;;;;;11.07;5.43;;;3.20;99.90;;;;;;4973901;28;20129;-79
2021/11/29 09:53:17;;;;;;;12.35;5.32;;;3.20;99.90;;;;;;4973235;28;20201;-78
2021/11/29 09:55:45;;;;;;;10.90;5.75;;;3.10;99.90;;;;;;4973567;28;20575;-79
2021/11/29 09:58:13;;;;;;;9.13;4.90;;;3.10;99.90;;;;;;4973330;28;20055;-78
2021/11/29 10:00:45;;;;;;;10.32;4.85;;;3.10;99.90;;;;;;4973823;28;20591;-78
2021/11/29 10:03:12;;;;;;;10.95;5.43;;;3.10;99.90;;;;;;4973321;28;20058;-77
2021/11/29 10:05:39;;;;;;;11.70;5.30;;;3.20;99.90;;;;;;4973514;28;20465;-78
2021/11/29 10:08:22;;;;;;;11.45;5.47;;;3.20;99.90;;;;;;4973520;28;20115;-78
2021/11/29 10:10:51;;;;;;;10.68;5.03;;;3.30;99.90;;;;;;4973612;28;20137;-80
2021/11/29 10:13:19;;;;;;;17.58;8.55;;;3.30;99.90;;;;;;4973194;28;20146;-79
2021/11/29 10:15:49;;;;;;;29.27;11.23;;;3.40;99.90;;;;;;4973222;28;20141;-77
2021/11/29 10:18:19;;;;;;;17.85;7.70;;;3.40;99.90;;;;;;4973385;28;20592;-77
2021/11/29 10:20:55;;;;;;;10.68;5.60;;;3.50;99.90;;;;;;4973567;28;20071;-78
2021/11/29 10:23:32;;;;;;;12.63;5.80;;;3.60;99.90;;;;;;4973183;28;20050;-78
2021/11/29 10:26:06;;;;;;;13.02;5.78;;;3.60;99.90;;;;;;4973264;28;20575;-78
2021/11/29 10:28:37;;;;;;;13.45;5.75;;;3.60;99.90;;;;;;4972905;28;20057;-78
2021/11/29 10:31:13;;;;;;;10.88;5.00;;;3.70;99.90;;;;;;4972739;28;20057;-78
2021/11/29 10:33:58;;;;;;;10.35;5.22;;;3.70;99.90;;;;;;4972298;28;20051;-78
2021/11/29 10:36:29;;;;;;;14.13;5.05;;;3.80;99.90;;;;;;4973437;28;20133;-77
2021/11/29 10:38:59;;;;;;;12.05;4.80;;;3.80;99.90;;;;;;4973308;28;20484;-77
2021/11/29 10:41:32;;;;;;;8.35;4.05;;;3.90;99.90;;;;;;4972888;28;20086;-78
2021/11/29 10:44:02;;;;;;;10.65;3.42;;;3.90;99.90;;;;;;4973242;28;20129;-80
2021/11/29 10:46:34;;;;;;;9.73;3.03;;;4.00;99.50;;;;;;4973491;28;20051;-80
2021/11/29 10:49:08;;;;;;;5.82;2.78;;;4.00;99.30;;;;;;4972546;28;20138;-79
2021/11/29 10:51:38;;;;;;;7.78;3.00;;;4.00;99.80;;;;;;4972497;28;20411;-78
2021/11/29 10:54:09;;;;;;;7.50;2.90;;;4.00;99.30;;;;;;4972619;28;20141;-79
2021/11/29 10:56:39;;;;;;;10.43;2.80;;;4.00;99.50;;;;;;4972196;28;20552;-79
2021/11/29 10:59:11;;;;;;;5.75;2.70;;;4.00;99.30;;;;;;4969642;28;20046;-79
2021/11/29 11:01:44;;;;;;;6.43;2.70;;;4.00;99.00;;;;;;4969516;28;20082;-78
2021/11/29 11:04:14;;;;;;;8.48;2.90;;;4.00;99.00;;;;;;4985077;28;20411;-79
2021/11/29 11:06:44;;;;;;;8.55;2.85;;;4.10;98.60;;;;;;4989020;28;20407;-78
2021/11/29 11:09:21;;;;;;;5.15;2.72;;;4.10;98.70;;;;;;4990395;28;20145;-76
2021/11/29 11:11:51;;;;;;;8.38;2.70;;;4.30;98.80;;;;;;4993221;28;20057;-76
2021/11/29 11:14:21;;;;;;;8.02;2.85;;;4.30;98.60;;;;;;4992286;28;20050;-78
2021/11/29 11:16:57;;;;;;;8.15;2.50;;;4.40;97.60;;;;;;4992296;28;20054;-78
2021/11/29 11:19:38;;;;;;;7.50;2.50;;;4.30;97.40;;;;;;4974339;28;20058;-79
2021/11/29 11:22:21;;;;;;;10.63;2.80;;;4.30;97.70;;;;;;4973024;28;20139;-79
2021/11/29 11:24:50;;;;;;;9.27;2.53;;;4.30;97.50;;;;;;4973001;28;20061;-78
2021/11/29 11:27:19;;;;;;;5.72;2.60;;;4.30;97.30;;;;;;4973074;28;20051;-77
2021/11/29 11:29:53;;;;;;;8.10;2.58;;;4.30;97.70;;;;;;4972687;28;20050;-78
2021/11/29 11:32:34;;;;;;;8.63;2.70;;;4.30;97.50;;;;;;4972949;28;20059;-79
2021/11/29 11:35:07;;;;;;;5.80;2.35;;;4.30;96.80;;;;;;4973076;28;20061;-79
2021/11/29 11:37:38;;;;;;;5.82;2.13;;;4.30;96.80;;;;;;4972941;28;20133;-79
2021/11/29 11:40:10;;;;;;;6.13;2.38;;;4.30;96.90;;;;;;4972320;28;20133;-79
2021/11/29 11:42:38;;;;;;;7.97;3.35;;;4.30;96.80;;;;;;4972062;28;20051;-79
2021/11/29 11:45:08;;;;;;;6.32;2.40;;;4.30;97.10;;;;;;4972913;28;20381;-77
2021/11/29 11:47:38;;;;;;;7.03;2.75;;;4.30;97.00;;;;;;4972404;28;20063;-77
2021/11/29 11:50:10;;;;;;;6.20;2.40;;;4.30;97.20;;;;;;4972626;28;20460;-77
2021/11/29 11:52:37;;;;;;;6.47;2.40;;;4.40;97.00;;;;;;4972667;28;20050;-79
2021/11/29 11:55:06;;;;;;;6.63;2.20;;;4.30;96.30;;;;;;4971768;28;20142;-79
2021/11/29 11:57:34;;;;;;;4.43;1.85;;;4.30;96.10;;;;;;4972475;28;20047;-78
2021/11/29 12:00:14;;;;;;;6.78;2.10;;;4.30;95.70;;;;;;4972590;28;20129;-78
2021/11/29 12:03:16;;;;;;;8.05;2.20;;;4.30;96.50;;;;;;4968727;28;20448;-77
2021/11/29 12:05:56;;;;;;;7.22;1.92;;;4.20;95.80;;;;;;4972109;28;20055;-77
2021/11/29 12:08:38;;;;;;;5.90;2.03;;;4.10;95.70;;;;;;4971818;28;20051;-81
2021/11/29 12:11:10;;;;;;;6.03;1.92;;;4.10;95.70;;;;;;4972249;28;20051;-81
2021/11/29 12:13:47;;;;;;;6.50;1.90;;;4.10;96.00;;;;;;4973370;28;20054;-81
2021/11/29 12:16:30;;;;;;;4.55;1.63;;;4.00;95.90;;;;;;4976264;28;20065;-77
2021/11/29 12:18:59;;;;;;;7.00;2.30;;;4.00;96.50;;;;;;4975255;28;20138;-79
2021/11/29 12:21:28;;;;;;;9.35;3.90;;;4.00;96.40;;;;;;4972287;28;20053;-78
2021/11/29 12:24:03;;;;;;;10.55;2.92;;;4.00;96.50;;;;;;4972494;28;20098;-77
2021/11/29 12:27:01;;;;;;;4.95;1.98;;;4.00;96.60;;;;;;4971983;28;20043;-78
2021/11/29 12:29:48;;;;;;;6.30;2.20;;;3.90;96.40;;;;;;4971808;28;20054;-78
2021/11/29 12:32:17;;;;;;;3.88;1.65;;;3.90;95.90;;;;;;4972300;28;20060;-80
2021/11/29 12:35:12;;;;;;;8.30;2.17;;;4.00;96.60;;;;;;4971198;28;20051;-79
2021/11/29 12:37:43;;;;;;;6.35;2.15;;;4.10;95.70;;;;;;4954315;28;20141;-77
2021/11/29 12:40:12;;;;;;;5.93;1.90;;;4.10;96.00;;;;;;4971884;28;20133;-77
2021/11/29 12:43:00;;;;;;;6.82;2.00;;;4.00;96.20;;;;;;4972264;28;20097;-79
2021/11/29 12:45:34;;;;;;;6.43;2.28;;;4.00;96.40;;;;;;4971099;28;20642;-79
2021/11/29 12:48:16;;;;;;;7.70;2.30;;;3.90;96.40;;;;;;4971773;28;20047;-78
2021/11/29 12:50:56;;;;;;;4.25;1.83;;;3.90;96.30;;;;;;4972381;28;20298;-79
2021/11/29 12:53:33;;;;;;;6.25;2.13;;;3.80;95.90;;;;;;4972445;28;20054;-80